Terminal Aerodrome Forecast
Issued by NWS

Home | Current Version | Previous Version | Text Only | Print | Product List | Glossary On
Versions: 1 2 3 4 5 6 7 8 9 10 11 12
000
FTUS42 TJSJ 011700
TAFJBQ
TAF
TJBQ 011736Z 0118/0218 07015KT P6SM VCTS SCT035CB
     FM012300 11006KT P6SM FEW025
     FM021330 08014KT P6SM FEW030
      AMD NOT SKED 0202/0211=

USA.gov is the U.S. government's official web portal to all federal, state and local government web resources and services.